sensor_id;sensor_type;location;lat;lon;timestamp;P1;durP1;ratioP1;P2;durP2;ratioP2
50757;SDS011;36732;47.980;11.652;2023-08-21T00:01:44;6.55;;;4.00;;
50757;SDS011;36732;47.980;11.652;2023-08-21T00:04:10;5.60;;;3.90;;
50757;SDS011;36732;47.980;11.652;2023-08-21T00:06:36;6.03;;;4.47;;
50757;SDS011;36732;47.980;11.652;2023-08-21T00:09:02;5.10;;;4.60;;
50757;SDS011;36732;47.980;11.652;2023-08-21T00:11:28;5.35;;;4.72;;
50757;SDS011;36732;47.980;11.652;2023-08-21T00:13:54;4.00;;;3.60;;
50757;SDS011;36732;47.980;11.652;2023-08-21T00:16:19;5.30;;;4.43;;
50757;SDS011;36732;47.980;11.652;2023-08-21T00:18:45;4.82;;;4.30;;
50757;SDS011;36732;47.980;11.652;2023-08-21T00:21:11;4.53;;;4.07;;
50757;SDS011;36732;47.980;11.652;2023-08-21T00:23:37;5.13;;;3.53;;
50757;SDS011;36732;47.980;11.652;2023-08-21T00:26:03;7.78;;;4.18;;
50757;SDS011;36732;47.980;11.652;2023-08-21T00:28:29;4.82;;;4.05;;
50757;SDS011;36732;47.980;11.652;2023-08-21T00:31:01;4.38;;;3.97;;
50757;SDS011;36732;47.980;11.652;2023-08-21T00:33:29;4.55;;;3.92;;
50757;SDS011;36732;47.980;11.652;2023-08-21T00:35:56;7.35;;;4.20;;
50757;SDS011;36732;47.980;11.652;2023-08-21T00:38:22;4.22;;;3.83;;
50757;SDS011;36732;47.980;11.652;2023-08-21T00:40:48;6.18;;;3.72;;
50757;SDS011;36732;47.980;11.652;2023-08-21T00:43:14;3.70;;;3.40;;
50757;SDS011;36732;47.980;11.652;2023-08-21T00:45:41;4.07;;;3.58;;
50757;SDS011;36732;47.980;11.652;2023-08-21T00:48:09;4.03;;;3.40;;
50757;SDS011;36732;47.980;11.652;2023-08-21T00:50:37;4.07;;;3.30;;
50757;SDS011;36732;47.980;11.652;2023-08-21T00:53:03;6.10;;;4.35;;
50757;SDS011;36732;47.980;11.652;2023-08-21T00:55:30;4.07;;;3.70;;
50757;SDS011;36732;47.980;11.652;2023-08-21T00:57:57;4.13;;;3.50;;
50757;SDS011;36732;47.980;11.652;2023-08-21T01:00:24;6.10;;;3.90;;
50757;SDS011;36732;47.980;11.652;2023-08-21T01:02:51;5.65;;;3.45;;
50757;SDS011;36732;47.980;11.652;2023-08-21T01:05:18;4.95;;;3.78;;
50757;SDS011;36732;47.980;11.652;2023-08-21T01:07:59;4.38;;;3.47;;
50757;SDS011;36732;47.980;11.652;2023-08-21T01:15:57;5.45;;;3.17;;
50757;SDS011;36732;47.980;11.652;2023-08-21T01:18:24;3.88;;;3.35;;
50757;SDS011;36732;47.980;11.652;2023-08-21T01:20:53;4.38;;;3.97;;
50757;SDS011;36732;47.980;11.652;2023-08-21T01:23:36;4.25;;;3.85;;
50757;SDS011;36732;47.980;11.652;2023-08-21T01:26:03;5.80;;;3.90;;
50757;SDS011;36732;47.980;11.652;2023-08-21T01:28:30;3.65;;;3.30;;
50757;SDS011;36732;47.980;11.652;2023-08-21T01:31:00;3.75;;;3.30;;
50757;SDS011;36732;47.980;11.652;2023-08-21T01:33:50;4.07;;;3.47;;
50757;SDS011;36732;47.980;11.652;2023-08-21T01:36:38;3.83;;;3.38;;
50757;SDS011;36732;47.980;11.652;2023-08-21T01:39:04;5.65;;;4.18;;
50757;SDS011;36732;47.980;11.652;2023-08-21T01:41:31;4.13;;;3.53;;
50757;SDS011;36732;47.980;11.652;2023-08-21T01:43:56;6.25;;;3.67;;
50757;SDS011;36732;47.980;11.652;2023-08-21T01:46:22;10.27;;;3.55;;
50757;SDS011;36732;47.980;11.652;2023-08-21T01:48:48;4.63;;;3.97;;
50757;SDS011;36732;47.980;11.652;2023-08-21T01:51:14;5.05;;;3.70;;
50757;SDS011;36732;47.980;11.652;2023-08-21T01:53:40;9.70;;;3.05;;
50757;SDS011;36732;47.980;11.652;2023-08-21T01:56:05;9.02;;;3.85;;
50757;SDS011;36732;47.980;11.652;2023-08-21T01:58:31;4.15;;;3.38;;
50757;SDS011;36732;47.980;11.652;2023-08-21T02:00:57;7.20;;;3.45;;
50757;SDS011;36732;47.980;11.652;2023-08-21T02:03:24;5.95;;;4.10;;
50757;SDS011;36732;47.980;11.652;2023-08-21T02:05:54;3.72;;;3.15;;
50757;SDS011;36732;47.980;11.652;2023-08-21T02:08:26;5.75;;;3.67;;
50757;SDS011;36732;47.980;11.652;2023-08-21T02:10:57;5.90;;;3.85;;
50757;SDS011;36732;47.980;11.652;2023-08-21T02:13:23;4.15;;;2.90;;
50757;SDS011;36732;47.980;11.652;2023-08-21T02:15:49;4.88;;;3.40;;
50757;SDS011;36732;47.980;11.652;2023-08-21T02:18:15;4.57;;;3.35;;
50757;SDS011;36732;47.980;11.652;2023-08-21T02:20:41;3.10;;;2.65;;
50757;SDS011;36732;47.980;11.652;2023-08-21T02:23:08;3.88;;;3.03;;
50757;SDS011;36732;47.980;11.652;2023-08-21T02:25:33;4.45;;;3.38;;
50757;SDS011;36732;47.980;11.652;2023-08-21T02:27:59;4.40;;;3.47;;
50757;SDS011;36732;47.980;11.652;2023-08-21T02:30:27;4.43;;;2.97;;
50757;SDS011;36732;47.980;11.652;2023-08-21T02:32:53;3.80;;;3.40;;
50757;SDS011;36732;47.980;11.652;2023-08-21T02:35:19;5.97;;;3.20;;
50757;SDS011;36732;47.980;11.652;2023-08-21T02:37:45;4.03;;;3.22;;
50757;SDS011;36732;47.980;11.652;2023-08-21T02:40:11;3.70;;;3.20;;
50757;SDS011;36732;47.980;11.652;2023-08-21T02:42:37;3.67;;;3.38;;
50757;SDS011;36732;47.980;11.652;2023-08-21T02:45:03;3.63;;;3.10;;
50757;SDS011;36732;47.980;11.652;2023-08-21T02:47:39;5.35;;;3.45;;
50757;SDS011;36732;47.980;11.652;2023-08-21T02:50:08;4.32;;;3.03;;
50757;SDS011;36732;47.980;11.652;2023-08-21T02:52:35;4.25;;;3.08;;
50757;SDS011;36732;47.980;11.652;2023-08-21T02:55:01;3.53;;;3.20;;
50757;SDS011;36732;47.980;11.652;2023-08-21T02:57:28;5.53;;;3.50;;
50757;SDS011;36732;47.980;11.652;2023-08-21T02:59:55;4.18;;;3.10;;
50757;SDS011;36732;47.980;11.652;2023-08-21T03:02:21;10.75;;;3.80;;
50757;SDS011;36732;47.980;11.652;2023-08-21T03:04:47;4.82;;;3.47;;
50757;SDS011;36732;47.980;11.652;2023-08-21T03:07:14;4.72;;;3.10;;
50757;SDS011;36732;47.980;11.652;2023-08-21T03:09:40;9.93;;;3.58;;
50757;SDS011;36732;47.980;11.652;2023-08-21T03:12:07;5.30;;;3.38;;
50757;SDS011;36732;47.980;11.652;2023-08-21T03:14:33;4.53;;;3.40;;
50757;SDS011;36732;47.980;11.652;2023-08-21T03:16:59;3.67;;;3.30;;
50757;SDS011;36732;47.980;11.652;2023-08-21T03:19:25;7.20;;;3.42;;
50757;SDS011;36732;47.980;11.652;2023-08-21T03:21:51;4.55;;;3.35;;
50757;SDS011;36732;47.980;11.652;2023-08-21T03:24:17;6.50;;;3.78;;
50757;SDS011;36732;47.980;11.652;2023-08-21T03:26:43;4.47;;;3.67;;
50757;SDS011;36732;47.980;11.652;2023-08-21T03:29:09;6.13;;;3.40;;
50757;SDS011;36732;47.980;11.652;2023-08-21T03:31:35;3.97;;;3.58;;
50757;SDS011;36732;47.980;11.652;2023-08-21T03:34:01;5.40;;;3.50;;
50757;SDS011;36732;47.980;11.652;2023-08-21T03:36:27;6.22;;;2.90;;
50757;SDS011;36732;47.980;11.652;2023-08-21T03:38:59;7.30;;;3.38;;
50757;SDS011;36732;47.980;11.652;2023-08-21T03:41:26;5.15;;;3.78;;
50757;SDS011;36732;47.980;11.652;2023-08-21T03:43:52;4.28;;;3.25;;
50757;SDS011;36732;47.980;11.652;2023-08-21T03:46:18;4.95;;;3.85;;
50757;SDS011;36732;47.980;11.652;2023-08-21T03:48:44;7.20;;;3.28;;
50757;SDS011;36732;47.980;11.652;2023-08-21T03:51:10;3.35;;;3.05;;
50757;SDS011;36732;47.980;11.652;2023-08-21T03:53:36;3.70;;;3.00;;
50757;SDS011;36732;47.980;11.652;2023-08-21T03:56:02;3.38;;;3.08;;
50757;SDS011;36732;47.980;11.652;2023-08-21T03:58:28;3.85;;;2.85;;
50757;SDS011;36732;47.980;11.652;2023-08-21T04:00:54;4.82;;;3.60;;
50757;SDS011;36732;47.980;11.652;2023-08-21T04:03:20;5.25;;;3.17;;
50757;SDS011;36732;47.980;11.652;2023-08-21T04:05:46;4.20;;;3.38;;
50757;SDS011;36732;47.980;11.652;2023-08-21T04:08:12;3.63;;;2.90;;
50757;SDS011;36732;47.980;11.652;2023-08-21T04:10:38;3.70;;;3.33;;
50757;SDS011;36732;47.980;11.652;2023-08-21T04:13:04;3.67;;;3.15;;
50757;SDS011;36732;47.980;11.652;2023-08-21T04:15:30;6.47;;;3.40;;
50757;SDS011;36732;47.980;11.652;2023-08-21T04:17:56;6.68;;;4.05;;
50757;SDS011;36732;47.980;11.652;2023-08-21T04:20:22;4.82;;;3.75;;
50757;SDS011;36732;47.980;11.652;2023-08-21T04:22:48;3.88;;;3.55;;
50757;SDS011;36732;47.980;11.652;2023-08-21T04:25:14;5.05;;;3.25;;
50757;SDS011;36732;47.980;11.652;2023-08-21T04:27:41;5.30;;;4.32;;
50757;SDS011;36732;47.980;11.652;2023-08-21T04:30:07;4.95;;;3.28;;
50757;SDS011;36732;47.980;11.652;2023-08-21T04:32:34;3.90;;;3.50;;
50757;SDS011;36732;47.980;11.652;2023-08-21T04:35:00;3.47;;;3.15;;
50757;SDS011;36732;47.980;11.652;2023-08-21T04:37:26;7.43;;;3.72;;
50757;SDS011;36732;47.980;11.652;2023-08-21T04:39:52;4.00;;;3.30;;
50757;SDS011;36732;47.980;11.652;2023-08-21T04:42:18;4.40;;;3.50;;
50757;SDS011;36732;47.980;11.652;2023-08-21T04:44:44;3.90;;;3.50;;
50757;SDS011;36732;47.980;11.652;2023-08-21T04:47:23;3.97;;;3.45;;
50757;SDS011;36732;47.980;11.652;2023-08-21T04:49:52;4.57;;;3.80;;
50757;SDS011;36732;47.980;11.652;2023-08-21T04:52:19;3.80;;;3.40;;
50757;SDS011;36732;47.980;11.652;2023-08-21T04:54:46;4.57;;;3.42;;
50757;SDS011;36732;47.980;11.652;2023-08-21T04:57:13;6.88;;;3.75;;
50757;SDS011;36732;47.980;11.652;2023-08-21T04:59:39;4.28;;;3.22;;
50757;SDS011;36732;47.980;11.652;2023-08-21T05:02:05;6.35;;;3.20;;
50757;SDS011;36732;47.980;11.652;2023-08-21T05:04:30;8.80;;;3.97;;
50757;SDS011;36732;47.980;11.652;2023-08-21T05:06:56;6.47;;;3.50;;
50757;SDS011;36732;47.980;11.652;2023-08-21T05:09:22;4.20;;;3.60;;
50757;SDS011;36732;47.980;11.652;2023-08-21T05:11:48;3.85;;;3.40;;
50757;SDS011;36732;47.980;11.652;2023-08-21T05:14:13;6.53;;;3.40;;
50757;SDS011;36732;47.980;11.652;2023-08-21T05:16:39;3.50;;;3.20;;
50757;SDS011;36732;47.980;11.652;2023-08-21T05:19:05;4.85;;;3.00;;
50757;SDS011;36732;47.980;11.652;2023-08-21T05:21:31;9.38;;;4.07;;
50757;SDS011;36732;47.980;11.652;2023-08-21T05:23:56;4.35;;;3.28;;
50757;SDS011;36732;47.980;11.652;2023-08-21T05:26:22;5.70;;;3.78;;
50757;SDS011;36732;47.980;11.652;2023-08-21T05:28:48;3.78;;;3.40;;
50757;SDS011;36732;47.980;11.652;2023-08-21T05:31:13;5.03;;;3.63;;
50757;SDS011;36732;47.980;11.652;2023-08-21T05:33:39;6.00;;;3.30;;
50757;SDS011;36732;47.980;11.652;2023-08-21T05:36:06;6.35;;;3.20;;
50757;SDS011;36732;47.980;11.652;2023-08-21T05:38:32;3.80;;;3.38;;
50757;SDS011;36732;47.980;11.652;2023-08-21T05:40:57;5.78;;;3.08;;
50757;SDS011;36732;47.980;11.652;2023-08-21T05:43:23;5.60;;;3.08;;
50757;SDS011;36732;47.980;11.652;2023-08-21T05:45:49;4.43;;;3.03;;
50757;SDS011;36732;47.980;11.652;2023-08-21T05:48:15;4.40;;;2.85;;
50757;SDS011;36732;47.980;11.652;2023-08-21T05:50:43;6.00;;;3.05;;
50757;SDS011;36732;47.980;11.652;2023-08-21T05:53:09;3.03;;;2.75;;
50757;SDS011;36732;47.980;11.652;2023-08-21T05:55:38;3.88;;;3.22;;
50757;SDS011;36732;47.980;11.652;2023-08-21T05:58:03;4.25;;;2.85;;
50757;SDS011;36732;47.980;11.652;2023-08-21T06:00:29;4.82;;;2.67;;
50757;SDS011;36732;47.980;11.652;2023-08-21T06:02:55;3.47;;;2.67;;
50757;SDS011;36732;47.980;11.652;2023-08-21T06:05:20;4.10;;;3.03;;
50757;SDS011;36732;47.980;11.652;2023-08-21T06:07:46;3.30;;;2.90;;
50757;SDS011;36732;47.980;11.652;2023-08-21T06:10:12;3.40;;;2.53;;
50757;SDS011;36732;47.980;11.652;2023-08-21T06:12:40;3.92;;;2.78;;
50757;SDS011;36732;47.980;11.652;2023-08-21T06:15:06;3.90;;;2.85;;
50757;SDS011;36732;47.980;11.652;2023-08-21T06:17:33;3.00;;;2.70;;
50757;SDS011;36732;47.980;11.652;2023-08-21T06:20:00;5.30;;;2.60;;
50757;SDS011;36732;47.980;11.652;2023-08-21T06:22:26;4.18;;;2.65;;
50757;SDS011;36732;47.980;11.652;2023-08-21T06:24:51;4.90;;;2.38;;
50757;SDS011;36732;47.980;11.652;2023-08-21T06:27:17;6.35;;;2.63;;
50757;SDS011;36732;47.980;11.652;2023-08-21T06:29:43;2.67;;;2.47;;
50757;SDS011;36732;47.980;11.652;2023-08-21T06:32:08;3.38;;;2.58;;
50757;SDS011;36732;47.980;11.652;2023-08-21T06:34:34;3.03;;;2.28;;
50757;SDS011;36732;47.980;11.652;2023-08-21T06:37:00;3.47;;;2.47;;
50757;SDS011;36732;47.980;11.652;2023-08-21T06:39:26;4.78;;;2.58;;
50757;SDS011;36732;47.980;11.652;2023-08-21T06:41:51;2.95;;;2.65;;
50757;SDS011;36732;47.980;11.652;2023-08-21T06:44:18;5.30;;;2.53;;
50757;SDS011;36732;47.980;11.652;2023-08-21T06:46:45;3.70;;;2.65;;
50757;SDS011;36732;47.980;11.652;2023-08-21T06:49:11;4.05;;;2.72;;
50757;SDS011;36732;47.980;11.652;2023-08-21T06:51:37;2.78;;;2.22;;
50757;SDS011;36732;47.980;11.652;2023-08-21T06:54:02;3.10;;;2.80;;
50757;SDS011;36732;47.980;11.652;2023-08-21T06:56:28;3.13;;;2.80;;
50757;SDS011;36732;47.980;11.652;2023-08-21T06:58:54;3.78;;;2.88;;
50757;SDS011;36732;47.980;11.652;2023-08-21T07:01:20;4.40;;;3.03;;
50757;SDS011;36732;47.980;11.652;2023-08-21T07:03:46;4.28;;;2.55;;
50757;SDS011;36732;47.980;11.652;2023-08-21T07:06:12;3.13;;;2.83;;
50757;SDS011;36732;47.980;11.652;2023-08-21T07:08:38;6.70;;;3.25;;
50757;SDS011;36732;47.980;11.652;2023-08-21T07:11:05;5.32;;;3.13;;
50757;SDS011;36732;47.980;11.652;2023-08-21T07:13:33;4.28;;;3.50;;
50757;SDS011;36732;47.980;11.652;2023-08-21T07:15:59;3.40;;;2.75;;
50757;SDS011;36732;47.980;11.652;2023-08-21T07:18:27;5.93;;;2.97;;
50757;SDS011;36732;47.980;11.652;2023-08-21T07:20:56;4.57;;;3.33;;
50757;SDS011;36732;47.980;11.652;2023-08-21T07:23:22;4.10;;;3.08;;
50757;SDS011;36732;47.980;11.652;2023-08-21T07:25:48;5.07;;;3.13;;
50757;SDS011;36732;47.980;11.652;2023-08-21T07:28:14;3.22;;;2.92;;
50757;SDS011;36732;47.980;11.652;2023-08-21T07:30:39;4.03;;;3.10;;
50757;SDS011;36732;47.980;11.652;2023-08-21T07:33:05;5.03;;;3.13;;
50757;SDS011;36732;47.980;11.652;2023-08-21T07:35:31;4.88;;;3.13;;
50757;SDS011;36732;47.980;11.652;2023-08-21T07:37:57;4.30;;;2.92;;
50757;SDS011;36732;47.980;11.652;2023-08-21T07:40:24;4.78;;;2.97;;
50757;SDS011;36732;47.980;11.652;2023-08-21T07:42:49;6.30;;;3.35;;
50757;SDS011;36732;47.980;11.652;2023-08-21T07:45:15;6.43;;;3.67;;
50757;SDS011;36732;47.980;11.652;2023-08-21T07:47:41;7.78;;;3.10;;
50757;SDS011;36732;47.980;11.652;2023-08-21T07:50:07;3.78;;;2.85;;
50757;SDS011;36732;47.980;11.652;2023-08-21T07:52:34;5.78;;;3.00;;
50757;SDS011;36732;47.980;11.652;2023-08-21T07:55:01;6.35;;;2.90;;
50757;SDS011;36732;47.980;11.652;2023-08-21T07:57:28;4.88;;;3.38;;
50757;SDS011;36732;47.980;11.652;2023-08-21T07:59:54;5.80;;;3.22;;
50757;SDS011;36732;47.980;11.652;2023-08-21T08:02:20;3.72;;;3.40;;
50757;SDS011;36732;47.980;11.652;2023-08-21T08:04:46;5.50;;;3.17;;
50757;SDS011;36732;47.980;11.652;2023-08-21T08:07:12;6.03;;;3.15;;
50757;SDS011;36732;47.980;11.652;2023-08-21T08:09:38;5.05;;;3.38;;
50757;SDS011;36732;47.980;11.652;2023-08-21T08:12:04;5.38;;;3.30;;
50757;SDS011;36732;47.980;11.652;2023-08-21T08:14:31;8.15;;;3.22;;
50757;SDS011;36732;47.980;11.652;2023-08-21T08:16:56;5.72;;;3.50;;
50757;SDS011;36732;47.980;11.652;2023-08-21T08:19:22;4.13;;;3.15;;
50757;SDS011;36732;47.980;11.652;2023-08-21T08:21:48;5.90;;;3.50;;
50757;SDS011;36732;47.980;11.652;2023-08-21T08:24:14;3.60;;;3.13;;
50757;SDS011;36732;47.980;11.652;2023-08-21T08:26:39;5.35;;;3.25;;
50757;SDS011;36732;47.980;11.652;2023-08-21T08:29:07;5.63;;;3.30;;
50757;SDS011;36732;47.980;11.652;2023-08-21T08:31:33;4.25;;;2.90;;
50757;SDS011;36732;47.980;11.652;2023-08-21T08:33:59;3.53;;;3.13;;
50757;SDS011;36732;47.980;11.652;2023-08-21T08:36:24;5.50;;;3.03;;
50757;SDS011;36732;47.980;11.652;2023-08-21T08:38:50;4.38;;;3.28;;
50757;SDS011;36732;47.980;11.652;2023-08-21T08:41:20;3.50;;;2.85;;
50757;SDS011;36732;47.980;11.652;2023-08-21T08:43:53;6.07;;;3.03;;
50757;SDS011;36732;47.980;11.652;2023-08-21T08:46:22;3.10;;;2.80;;
50757;SDS011;36732;47.980;11.652;2023-08-21T08:48:49;4.93;;;3.25;;
50757;SDS011;36732;47.980;11.652;2023-08-21T08:51:17;3.30;;;2.95;;
50757;SDS011;36732;47.980;11.652;2023-08-21T08:53:42;6.22;;;3.30;;
50757;SDS011;36732;47.980;11.652;2023-08-21T08:56:09;4.15;;;3.20;;
50757;SDS011;36732;47.980;11.652;2023-08-21T08:58:35;4.00;;;3.10;;
50757;SDS011;36732;47.980;11.652;2023-08-21T09:01:01;3.45;;;3.15;;
50757;SDS011;36732;47.980;11.652;2023-08-21T09:03:27;4.53;;;3.20;;
50757;SDS011;36732;47.980;11.652;2023-08-21T09:05:54;4.50;;;2.88;;
50757;SDS011;36732;47.980;11.652;2023-08-21T09:08:20;3.70;;;2.95;;
50757;SDS011;36732;47.980;11.652;2023-08-21T09:10:46;3.10;;;2.80;;
50757;SDS011;36732;47.980;11.652;2023-08-21T09:15:40;5.72;;;3.03;;
50757;SDS011;36732;47.980;11.652;2023-08-21T09:18:18;3.72;;;2.95;;
50757;SDS011;36732;47.980;11.652;2023-08-21T09:20:44;3.85;;;3.15;;
50757;SDS011;36732;47.980;11.652;2023-08-21T09:23:15;3.38;;;2.67;;
50757;SDS011;36732;47.980;11.652;2023-08-21T09:25:43;5.57;;;3.28;;
50757;SDS011;36732;47.980;11.652;2023-08-21T09:28:14;3.38;;;3.05;;
50757;SDS011;36732;47.980;11.652;2023-08-21T09:33:20;3.53;;;2.90;;
50757;SDS011;36732;47.980;11.652;2023-08-21T09:35:47;3.15;;;2.85;;
50757;SDS011;36732;47.980;11.652;2023-08-21T09:38:14;4.05;;;2.88;;
50757;SDS011;36732;47.980;11.652;2023-08-21T09:40:40;3.28;;;2.80;;
50757;SDS011;36732;47.980;11.652;2023-08-21T09:43:16;3.33;;;2.85;;
50757;SDS011;36732;47.980;11.652;2023-08-21T09:45:42;4.05;;;3.22;;
50757;SDS011;36732;47.980;11.652;2023-08-21T09:48:17;4.05;;;2.90;;
50757;SDS011;36732;47.980;11.652;2023-08-21T09:50:46;2.83;;;2.63;;
50757;SDS011;36732;47.980;11.652;2023-08-21T09:53:11;3.72;;;2.65;;
50757;SDS011;36732;47.980;11.652;2023-08-21T09:55:38;4.05;;;2.72;;
50757;SDS011;36732;47.980;11.652;2023-08-21T09:58:07;3.30;;;2.72;;
50757;SDS011;36732;47.980;11.652;2023-08-21T10:00:34;3.20;;;2.88;;
50757;SDS011;36732;47.980;11.652;2023-08-21T10:03:03;4.53;;;3.40;;
50757;SDS011;36732;47.980;11.652;2023-08-21T10:05:34;3.70;;;3.00;;
50757;SDS011;36732;47.980;11.652;2023-08-21T10:08:02;5.60;;;3.40;;
50757;SDS011;36732;47.980;11.652;2023-08-21T10:10:31;4.22;;;3.33;;
50757;SDS011;36732;47.980;11.652;2023-08-21T10:13:03;3.25;;;2.80;;
50757;SDS011;36732;47.980;11.652;2023-08-21T10:15:31;3.90;;;3.50;;
50757;SDS011;36732;47.980;11.652;2023-08-21T10:17:59;8.60;;;2.90;;
50757;SDS011;36732;47.980;11.652;2023-08-21T10:20:48;4.35;;;3.17;;
50757;SDS011;36732;47.980;11.652;2023-08-21T10:23:28;3.85;;;3.00;;
50757;SDS011;36732;47.980;11.652;2023-08-21T10:25:58;3.75;;;3.10;;
50757;SDS011;36732;47.980;11.652;2023-08-21T10:28:40;5.55;;;3.22;;
50757;SDS011;36732;47.980;11.652;2023-08-21T10:31:38;3.53;;;2.90;;
50757;SDS011;36732;47.980;11.652;2023-08-21T10:34:08;3.42;;;3.13;;
50757;SDS011;36732;47.980;11.652;2023-08-21T10:42:04;2.85;;;2.05;;
50757;SDS011;36732;47.980;11.652;2023-08-21T10:49:46;2.58;;;2.38;;
50757;SDS011;36732;47.980;11.652;2023-08-21T10:52:18;2.72;;;2.17;;
50757;SDS011;36732;47.980;11.652;2023-08-21T10:54:54;2.78;;;2.50;;
50757;SDS011;36732;47.980;11.652;2023-08-21T10:57:25;2.83;;;2.50;;
50757;SDS011;36732;47.980;11.652;2023-08-21T11:02:36;2.55;;;1.88;;
50757;SDS011;36732;47.980;11.652;2023-08-21T11:05:05;3.33;;;2.33;;
50757;SDS011;36732;47.980;11.652;2023-08-21T11:10:13;2.63;;;2.28;;
50757;SDS011;36732;47.980;11.652;2023-08-21T11:12:53;2.15;;;1.95;;
50757;SDS011;36732;47.980;11.652;2023-08-21T11:15:21;2.50;;;2.30;;
50757;SDS011;36732;47.980;11.652;2023-08-21T11:17:58;3.03;;;2.58;;
50757;SDS011;36732;47.980;11.652;2023-08-21T11:20:33;2.63;;;2.17;;
50757;SDS011;36732;47.980;11.652;2023-08-21T11:25:33;2.42;;;2.08;;
50757;SDS011;36732;47.980;11.652;2023-08-21T11:28:03;2.90;;;2.08;;
50757;SDS011;36732;47.980;11.652;2023-08-21T11:30:30;2.30;;;2.10;;
50757;SDS011;36732;47.980;11.652;2023-08-21T11:33:09;2.10;;;1.90;;
50757;SDS011;36732;47.980;11.652;2023-08-21T11:35:38;2.80;;;2.10;;
50757;SDS011;36732;47.980;11.652;2023-08-21T11:38:05;3.63;;;2.38;;
50757;SDS011;36732;47.980;11.652;2023-08-21T11:40:34;3.20;;;2.00;;
50757;SDS011;36732;47.980;11.652;2023-08-21T11:43:00;2.20;;;2.00;;
50757;SDS011;36732;47.980;11.652;2023-08-21T11:45:28;6.13;;;2.40;;
50757;SDS011;36732;47.980;11.652;2023-08-21T11:47:57;3.95;;;2.60;;
50757;SDS011;36732;47.980;11.652;2023-08-21T11:50:24;3.78;;;2.42;;
50757;SDS011;36732;47.980;11.652;2023-08-21T11:52:52;5.60;;;2.60;;
50757;SDS011;36732;47.980;11.652;2023-08-21T11:55:20;5.25;;;2.85;;
50757;SDS011;36732;47.980;11.652;2023-08-21T11:57:46;4.68;;;2.83;;
50757;SDS011;36732;47.980;11.652;2023-08-21T12:00:16;2.38;;;2.17;;
50757;SDS011;36732;47.980;11.652;2023-08-21T12:03:00;3.00;;;2.60;;
50757;SDS011;36732;47.980;11.652;2023-08-21T12:05:28;3.53;;;2.80;;
50757;SDS011;36732;47.980;11.652;2023-08-21T12:07:54;3.53;;;2.53;;
50757;SDS011;36732;47.980;11.652;2023-08-21T12:10:27;4.15;;;2.83;;
50757;SDS011;36732;47.980;11.652;2023-08-21T12:12:54;3.30;;;2.80;;
50757;SDS011;36732;47.980;11.652;2023-08-21T12:15:21;3.65;;;2.88;;
50757;SDS011;36732;47.980;11.652;2023-08-21T12:17:47;3.40;;;3.10;;
50757;SDS011;36732;47.980;11.652;2023-08-21T12:20:13;4.50;;;3.10;;
50757;SDS011;36732;47.980;11.652;2023-08-21T12:22:39;3.38;;;2.70;;
50757;SDS011;36732;47.980;11.652;2023-08-21T12:25:07;5.20;;;3.10;;
50757;SDS011;36732;47.980;11.652;2023-08-21T12:27:33;4.03;;;2.90;;
50757;SDS011;36732;47.980;11.652;2023-08-21T12:29:59;3.78;;;3.10;;
50757;SDS011;36732;47.980;11.652;2023-08-21T12:32:25;5.18;;;2.88;;
50757;SDS011;36732;47.980;11.652;2023-08-21T12:34:51;4.15;;;3.17;;
50757;SDS011;36732;47.980;11.652;2023-08-21T12:37:17;6.60;;;3.00;;
50757;SDS011;36732;47.980;11.652;2023-08-21T12:39:43;6.85;;;2.95;;
50757;SDS011;36732;47.980;11.652;2023-08-21T12:42:09;5.15;;;2.92;;
50757;SDS011;36732;47.980;11.652;2023-08-21T12:44:34;4.00;;;3.25;;
50757;SDS011;36732;47.980;11.652;2023-08-21T12:47:00;5.80;;;3.35;;
50757;SDS011;36732;47.980;11.652;2023-08-21T12:49:26;4.68;;;3.25;;
50757;SDS011;36732;47.980;11.652;2023-08-21T12:51:52;10.57;;;3.35;;
50757;SDS011;36732;47.980;11.652;2023-08-21T12:54:17;6.13;;;3.40;;
50757;SDS011;36732;47.980;11.652;2023-08-21T12:56:43;3.60;;;3.10;;
50757;SDS011;36732;47.980;11.652;2023-08-21T12:59:09;3.40;;;3.10;;
50757;SDS011;36732;47.980;11.652;2023-08-21T13:01:35;5.22;;;3.20;;
50757;SDS011;36732;47.980;11.652;2023-08-21T13:04:02;3.22;;;2.78;;
50757;SDS011;36732;47.980;11.652;2023-08-21T13:06:28;3.35;;;2.75;;
50757;SDS011;36732;47.980;11.652;2023-08-21T13:08:54;3.25;;;2.95;;
50757;SDS011;36732;47.980;11.652;2023-08-21T13:11:19;3.35;;;3.05;;
50757;SDS011;36732;47.980;11.652;2023-08-21T13:13:46;4.18;;;3.15;;
50757;SDS011;36732;47.980;11.652;2023-08-21T13:16:12;3.55;;;3.20;;
50757;SDS011;36732;47.980;11.652;2023-08-21T13:18:37;4.68;;;3.50;;
50757;SDS011;36732;47.980;11.652;2023-08-21T13:21:03;3.33;;;3.00;;
50757;SDS011;36732;47.980;11.652;2023-08-21T13:23:29;4.15;;;2.92;;
50757;SDS011;36732;47.980;11.652;2023-08-21T13:25:56;4.32;;;3.08;;
50757;SDS011;36732;47.980;11.652;2023-08-21T13:28:23;7.03;;;3.53;;
50757;SDS011;36732;47.980;11.652;2023-08-21T13:30:49;3.03;;;2.67;;
50757;SDS011;36732;47.980;11.652;2023-08-21T13:33:14;3.10;;;2.80;;
50757;SDS011;36732;47.980;11.652;2023-08-21T13:35:42;3.17;;;2.88;;
50757;SDS011;36732;47.980;11.652;2023-08-21T13:38:10;3.58;;;3.22;;
50757;SDS011;36732;47.980;11.652;2023-08-21T13:40:37;4.47;;;3.20;;
50757;SDS011;36732;47.980;11.652;2023-08-21T13:43:03;2.90;;;2.70;;
50757;SDS011;36732;47.980;11.652;2023-08-21T13:45:28;4.30;;;2.88;;
50757;SDS011;36732;47.980;11.652;2023-08-21T13:47:54;3.38;;;3.03;;
50757;SDS011;36732;47.980;11.652;2023-08-21T13:50:20;4.32;;;3.30;;
50757;SDS011;36732;47.980;11.652;2023-08-21T13:52:46;3.22;;;2.92;;
50757;SDS011;36732;47.980;11.652;2023-08-21T13:55:13;4.10;;;2.88;;
50757;SDS011;36732;47.980;11.652;2023-08-21T13:57:40;4.22;;;3.22;;
50757;SDS011;36732;47.980;11.652;2023-08-21T14:00:06;3.70;;;3.10;;
50757;SDS011;36732;47.980;11.652;2023-08-21T14:02:37;4.78;;;3.00;;
50757;SDS011;36732;47.980;11.652;2023-08-21T14:05:05;6.07;;;3.03;;
50757;SDS011;36732;47.980;11.652;2023-08-21T14:07:32;3.60;;;3.22;;
50757;SDS011;36732;47.980;11.652;2023-08-21T14:09:59;4.68;;;3.25;;
50757;SDS011;36732;47.980;11.652;2023-08-21T14:12:25;3.50;;;3.05;;
50757;SDS011;36732;47.980;11.652;2023-08-21T14:14:53;3.13;;;2.83;;
50757;SDS011;36732;47.980;11.652;2023-08-21T14:17:19;4.60;;;3.30;;
50757;SDS011;36732;47.980;11.652;2023-08-21T14:19:45;3.03;;;2.80;;
50757;SDS011;36732;47.980;11.652;2023-08-21T14:22:11;4.20;;;2.85;;
50757;SDS011;36732;47.980;11.652;2023-08-21T14:24:36;3.70;;;3.25;;
50757;SDS011;36732;47.980;11.652;2023-08-21T14:27:02;3.97;;;2.90;;
50757;SDS011;36732;47.980;11.652;2023-08-21T14:29:28;3.53;;;3.22;;
50757;SDS011;36732;47.980;11.652;2023-08-21T14:31:54;5.55;;;3.47;;
50757;SDS011;36732;47.980;11.652;2023-08-21T14:34:20;5.22;;;3.00;;
50757;SDS011;36732;47.980;11.652;2023-08-21T14:36:46;3.85;;;3.45;;
50757;SDS011;36732;47.980;11.652;2023-08-21T14:39:13;6.57;;;3.58;;
50757;SDS011;36732;47.980;11.652;2023-08-21T14:41:41;4.75;;;3.17;;
50757;SDS011;36732;47.980;11.652;2023-08-21T14:44:07;8.48;;;3.13;;
50757;SDS011;36732;47.980;11.652;2023-08-21T14:46:33;3.90;;;3.03;;
50757;SDS011;36732;47.980;11.652;2023-08-21T14:48:59;5.22;;;3.22;;
50757;SDS011;36732;47.980;11.652;2023-08-21T14:51:25;5.63;;;2.85;;
50757;SDS011;36732;47.980;11.652;2023-08-21T14:53:51;4.28;;;2.67;;
50757;SDS011;36732;47.980;11.652;2023-08-21T14:56:16;4.60;;;2.97;;
50757;SDS011;36732;47.980;11.652;2023-08-21T14:58:42;3.15;;;2.80;;
50757;SDS011;36732;47.980;11.652;2023-08-21T15:01:09;3.80;;;3.20;;
50757;SDS011;36732;47.980;11.652;2023-08-21T15:03:37;3.20;;;2.55;;